Terminal Aerodrome Forecast
Issued by NWS Sterling, VA

Current Version | Previous Version | Text Only | Print | Product List | Glossary Off
Versions: 1 2 3 4 5 6 7 8 9 10 11 12 13 14 15 16 17 18 19 20 21 22 23 24

000
FTUS41 KLWX 170857 AAB
TAFIAD
TAF AMD
KIAD 170857Z 1709/1812 35012KT 6SM -SN BKN017 OVC035
     FM171300 33012G19KT P6SM OVC035
     FM172200 32013G20KT P6SM SCT090
     FM180400 31009KT P6SM FEW090
     FM181100 27007KT P6SM FEW150=

USA.gov is the U.S. government's official web portal to all federal, state and local government web resources and services.